sensor_id;sensor_type;location;lat;lon;timestamp;P1;durP1;ratioP1;P2;durP2;ratioP2
5279;SDS011;2663;53.588;10.010;2023-02-10T00:02:03;43.40;;;18.07;;
5279;SDS011;2663;53.588;10.010;2023-02-10T00:04:30;45.53;;;19.03;;
5279;SDS011;2663;53.588;10.010;2023-02-10T00:06:57;46.40;;;20.47;;
5279;SDS011;2663;53.588;10.010;2023-02-10T00:09:23;56.23;;;17.57;;
5279;SDS011;2663;53.588;10.010;2023-02-10T00:11:50;43.37;;;17.63;;
5279;SDS011;2663;53.588;10.010;2023-02-10T00:14:23;45.90;;;20.00;;
5279;SDS011;2663;53.588;10.010;2023-02-10T00:16:50;41.33;;;18.40;;
5279;SDS011;2663;53.588;10.010;2023-02-10T00:19:18;41.67;;;17.43;;
5279;SDS011;2663;53.588;10.010;2023-02-10T00:21:46;40.73;;;18.63;;
5279;SDS011;2663;53.588;10.010;2023-02-10T00:24:13;54.60;;;18.33;;
5279;SDS011;2663;53.588;10.010;2023-02-10T00:26:39;42.80;;;17.77;;
5279;SDS011;2663;53.588;10.010;2023-02-10T00:29:06;46.40;;;15.83;;
5279;SDS011;2663;53.588;10.010;2023-02-10T00:31:33;44.87;;;17.30;;
5279;SDS011;2663;53.588;10.010;2023-02-10T00:33:59;44.87;;;18.10;;
5279;SDS011;2663;53.588;10.010;2023-02-10T00:36:26;43.43;;;19.30;;
5279;SDS011;2663;53.588;10.010;2023-02-10T00:38:53;47.73;;;18.80;;
5279;SDS011;2663;53.588;10.010;2023-02-10T00:41:20;47.30;;;18.90;;
5279;SDS011;2663;53.588;10.010;2023-02-10T00:43:48;44.53;;;18.60;;
5279;SDS011;2663;53.588;10.010;2023-02-10T00:46:16;53.73;;;17.83;;
5279;SDS011;2663;53.588;10.010;2023-02-10T00:48:44;45.47;;;17.57;;
5279;SDS011;2663;53.588;10.010;2023-02-10T00:51:12;62.13;;;17.63;;
5279;SDS011;2663;53.588;10.010;2023-02-10T00:53:39;46.93;;;17.47;;
5279;SDS011;2663;53.588;10.010;2023-02-10T00:56:06;71.50;;;17.70;;
5279;SDS011;2663;53.588;10.010;2023-02-10T00:58:34;36.47;;;15.97;;
5279;SDS011;2663;53.588;10.010;2023-02-10T01:01:01;31.87;;;13.27;;
5279;SDS011;2663;53.588;10.010;2023-02-10T01:03:28;45.90;;;18.40;;
5279;SDS011;2663;53.588;10.010;2023-02-10T01:05:55;45.40;;;16.40;;
5279;SDS011;2663;53.588;10.010;2023-02-10T01:08:22;46.80;;;18.83;;
5279;SDS011;2663;53.588;10.010;2023-02-10T01:10:48;43.77;;;18.50;;
5279;SDS011;2663;53.588;10.010;2023-02-10T01:13:15;60.67;;;18.30;;
5279;SDS011;2663;53.588;10.010;2023-02-10T01:15:43;51.87;;;17.07;;
5279;SDS011;2663;53.588;10.010;2023-02-10T01:18:12;41.17;;;16.70;;
5279;SDS011;2663;53.588;10.010;2023-02-10T01:20:39;40.33;;;16.03;;
5279;SDS011;2663;53.588;10.010;2023-02-10T01:23:08;51.23;;;18.20;;
5279;SDS011;2663;53.588;10.010;2023-02-10T01:25:35;46.67;;;17.00;;
5279;SDS011;2663;53.588;10.010;2023-02-10T01:28:03;42.90;;;15.93;;
5279;SDS011;2663;53.588;10.010;2023-02-10T01:30:31;58.70;;;18.73;;
5279;SDS011;2663;53.588;10.010;2023-02-10T01:32:58;50.27;;;17.10;;
5279;SDS011;2663;53.588;10.010;2023-02-10T01:35:25;42.27;;;16.50;;
5279;SDS011;2663;53.588;10.010;2023-02-10T01:37:53;61.97;;;17.03;;
5279;SDS011;2663;53.588;10.010;2023-02-10T01:40:20;40.77;;;17.33;;
5279;SDS011;2663;53.588;10.010;2023-02-10T01:42:48;35.47;;;17.03;;
5279;SDS011;2663;53.588;10.010;2023-02-10T01:45:33;39.10;;;16.87;;
5279;SDS011;2663;53.588;10.010;2023-02-10T01:48:02;43.13;;;15.37;;
5279;SDS011;2663;53.588;10.010;2023-02-10T01:50:31;41.47;;;16.63;;
5279;SDS011;2663;53.588;10.010;2023-02-10T01:53:03;30.83;;;16.67;;
5279;SDS011;2663;53.588;10.010;2023-02-10T01:55:32;40.10;;;17.10;;
5279;SDS011;2663;53.588;10.010;2023-02-10T01:58:01;42.33;;;15.40;;
5279;SDS011;2663;53.588;10.010;2023-02-10T02:00:31;42.87;;;17.67;;
5279;SDS011;2663;53.588;10.010;2023-02-10T02:02:57;40.30;;;15.00;;
5279;SDS011;2663;53.588;10.010;2023-02-10T02:08:11;40.60;;;15.63;;
5279;SDS011;2663;53.588;10.010;2023-02-10T02:21:55;34.77;;;15.20;;
5279;SDS011;2663;53.588;10.010;2023-02-10T02:30:02;34.10;;;14.23;;
5279;SDS011;2663;53.588;10.010;2023-02-10T02:32:57;38.90;;;14.80;;
5279;SDS011;2663;53.588;10.010;2023-02-10T02:35:50;35.53;;;13.20;;
5279;SDS011;2663;53.588;10.010;2023-02-10T02:38:23;40.47;;;14.13;;
5279;SDS011;2663;53.588;10.010;2023-02-10T02:40:49;33.83;;;13.37;;
5279;SDS011;2663;53.588;10.010;2023-02-10T02:43:16;32.43;;;12.30;;
5279;SDS011;2663;53.588;10.010;2023-02-10T02:45:53;36.10;;;15.70;;
5279;SDS011;2663;53.588;10.010;2023-02-10T03:00:12;28.47;;;13.10;;
5279;SDS011;2663;53.588;10.010;2023-02-10T03:02:40;41.13;;;14.20;;
5279;SDS011;2663;53.588;10.010;2023-02-10T03:05:08;40.83;;;15.20;;
5279;SDS011;2663;53.588;10.010;2023-02-10T03:07:35;30.80;;;13.00;;
5279;SDS011;2663;53.588;10.010;2023-02-10T03:10:03;55.23;;;15.63;;
5279;SDS011;2663;53.588;10.010;2023-02-10T03:12:30;49.33;;;15.90;;
5279;SDS011;2663;53.588;10.010;2023-02-10T03:14:57;41.80;;;15.20;;
5279;SDS011;2663;53.588;10.010;2023-02-10T03:17:24;40.43;;;14.73;;
5279;SDS011;2663;53.588;10.010;2023-02-10T03:19:50;39.73;;;14.40;;
5279;SDS011;2663;53.588;10.010;2023-02-10T03:22:17;37.60;;;14.60;;
5279;SDS011;2663;53.588;10.010;2023-02-10T03:24:43;38.00;;;14.97;;
5279;SDS011;2663;53.588;10.010;2023-02-10T03:27:10;45.63;;;15.20;;
5279;SDS011;2663;53.588;10.010;2023-02-10T03:29:37;47.83;;;14.60;;
5279;SDS011;2663;53.588;10.010;2023-02-10T03:32:03;32.87;;;14.03;;
5279;SDS011;2663;53.588;10.010;2023-02-10T03:34:31;37.43;;;14.07;;
5279;SDS011;2663;53.588;10.010;2023-02-10T03:36:58;45.80;;;15.03;;
5279;SDS011;2663;53.588;10.010;2023-02-10T03:39:24;36.80;;;15.27;;
5279;SDS011;2663;53.588;10.010;2023-02-10T03:41:51;38.83;;;15.10;;
5279;SDS011;2663;53.588;10.010;2023-02-10T03:44:19;43.63;;;14.87;;
5279;SDS011;2663;53.588;10.010;2023-02-10T03:46:46;32.23;;;13.10;;
5279;SDS011;2663;53.588;10.010;2023-02-10T03:49:12;36.60;;;12.70;;
5279;SDS011;2663;53.588;10.010;2023-02-10T03:51:39;37.87;;;15.20;;
5279;SDS011;2663;53.588;10.010;2023-02-10T03:54:06;60.87;;;15.47;;
5279;SDS011;2663;53.588;10.010;2023-02-10T03:56:32;37.80;;;15.20;;
5279;SDS011;2663;53.588;10.010;2023-02-10T03:59:00;50.47;;;16.07;;
5279;SDS011;2663;53.588;10.010;2023-02-10T04:01:27;30.83;;;15.57;;
5279;SDS011;2663;53.588;10.010;2023-02-10T04:03:54;39.20;;;15.30;;
5279;SDS011;2663;53.588;10.010;2023-02-10T04:06:21;40.77;;;15.63;;
5279;SDS011;2663;53.588;10.010;2023-02-10T04:08:48;37.37;;;14.97;;
5279;SDS011;2663;53.588;10.010;2023-02-10T04:11:15;42.63;;;16.10;;
5279;SDS011;2663;53.588;10.010;2023-02-10T04:13:42;42.50;;;15.00;;
5279;SDS011;2663;53.588;10.010;2023-02-10T04:16:09;49.00;;;15.40;;
5279;SDS011;2663;53.588;10.010;2023-02-10T04:18:41;33.90;;;14.30;;
5279;SDS011;2663;53.588;10.010;2023-02-10T04:21:09;40.37;;;15.40;;
5279;SDS011;2663;53.588;10.010;2023-02-10T04:23:37;36.80;;;14.10;;
5279;SDS011;2663;53.588;10.010;2023-02-10T04:26:04;35.60;;;16.20;;
5279;SDS011;2663;53.588;10.010;2023-02-10T04:28:30;36.17;;;16.33;;
5279;SDS011;2663;53.588;10.010;2023-02-10T04:30:58;37.93;;;15.33;;
5279;SDS011;2663;53.588;10.010;2023-02-10T04:33:26;54.70;;;17.40;;
5279;SDS011;2663;53.588;10.010;2023-02-10T04:35:54;35.97;;;16.27;;
5279;SDS011;2663;53.588;10.010;2023-02-10T04:38:21;50.30;;;14.70;;
5279;SDS011;2663;53.588;10.010;2023-02-10T04:40:48;42.20;;;15.20;;
5279;SDS011;2663;53.588;10.010;2023-02-10T04:43:15;38.93;;;16.17;;
5279;SDS011;2663;53.588;10.010;2023-02-10T04:45:42;53.57;;;15.97;;
5279;SDS011;2663;53.588;10.010;2023-02-10T04:48:09;40.13;;;16.07;;
5279;SDS011;2663;53.588;10.010;2023-02-10T04:50:36;41.60;;;15.53;;
5279;SDS011;2663;53.588;10.010;2023-02-10T04:53:03;50.37;;;16.27;;
5279;SDS011;2663;53.588;10.010;2023-02-10T04:55:30;40.57;;;13.80;;
5279;SDS011;2663;53.588;10.010;2023-02-10T04:57:57;37.90;;;15.40;;
5279;SDS011;2663;53.588;10.010;2023-02-10T05:00:23;42.73;;;16.20;;
5279;SDS011;2663;53.588;10.010;2023-02-10T05:02:50;38.57;;;14.07;;
5279;SDS011;2663;53.588;10.010;2023-02-10T05:05:17;40.63;;;14.23;;
5279;SDS011;2663;53.588;10.010;2023-02-10T05:07:44;38.63;;;16.30;;
5279;SDS011;2663;53.588;10.010;2023-02-10T05:10:11;38.60;;;14.47;;
5279;SDS011;2663;53.588;10.010;2023-02-10T05:12:38;40.87;;;15.17;;
5279;SDS011;2663;53.588;10.010;2023-02-10T05:15:04;43.73;;;15.70;;
5279;SDS011;2663;53.588;10.010;2023-02-10T05:17:34;36.80;;;15.27;;
5279;SDS011;2663;53.588;10.010;2023-02-10T05:20:01;40.33;;;15.57;;
5279;SDS011;2663;53.588;10.010;2023-02-10T05:22:28;34.13;;;15.47;;
5279;SDS011;2663;53.588;10.010;2023-02-10T05:24:56;37.03;;;15.07;;
5279;SDS011;2663;53.588;10.010;2023-02-10T05:27:23;51.87;;;15.40;;
5279;SDS011;2663;53.588;10.010;2023-02-10T05:29:50;35.63;;;15.20;;
5279;SDS011;2663;53.588;10.010;2023-02-10T05:32:17;39.23;;;14.27;;
5279;SDS011;2663;53.588;10.010;2023-02-10T05:34:44;50.10;;;14.23;;
5279;SDS011;2663;53.588;10.010;2023-02-10T05:37:11;43.97;;;15.97;;
5279;SDS011;2663;53.588;10.010;2023-02-10T05:39:38;54.67;;;15.63;;
5279;SDS011;2663;53.588;10.010;2023-02-10T05:42:04;48.70;;;15.00;;
5279;SDS011;2663;53.588;10.010;2023-02-10T05:44:31;52.07;;;14.80;;
5279;SDS011;2663;53.588;10.010;2023-02-10T05:46:58;39.50;;;14.80;;
5279;SDS011;2663;53.588;10.010;2023-02-10T05:49:25;61.90;;;14.20;;
5279;SDS011;2663;53.588;10.010;2023-02-10T05:51:52;40.63;;;15.40;;
5279;SDS011;2663;53.588;10.010;2023-02-10T05:54:19;36.60;;;14.17;;
5279;SDS011;2663;53.588;10.010;2023-02-10T05:56:46;49.93;;;14.57;;
5279;SDS011;2663;53.588;10.010;2023-02-10T05:59:13;41.37;;;16.80;;
5279;SDS011;2663;53.588;10.010;2023-02-10T06:01:40;37.20;;;14.87;;
5279;SDS011;2663;53.588;10.010;2023-02-10T06:04:07;42.20;;;14.80;;
5279;SDS011;2663;53.588;10.010;2023-02-10T06:06:34;41.77;;;15.00;;
5279;SDS011;2663;53.588;10.010;2023-02-10T06:09:01;45.00;;;15.20;;
5279;SDS011;2663;53.588;10.010;2023-02-10T06:11:28;47.03;;;16.37;;
5279;SDS011;2663;53.588;10.010;2023-02-10T06:13:54;35.90;;;14.60;;
5279;SDS011;2663;53.588;10.010;2023-02-10T06:16:21;36.73;;;14.80;;
5279;SDS011;2663;53.588;10.010;2023-02-10T06:18:48;40.57;;;16.43;;
5279;SDS011;2663;53.588;10.010;2023-02-10T06:21:15;41.37;;;14.37;;
5279;SDS011;2663;53.588;10.010;2023-02-10T06:23:42;44.10;;;15.30;;
5279;SDS011;2663;53.588;10.010;2023-02-10T06:26:09;35.70;;;14.37;;
5279;SDS011;2663;53.588;10.010;2023-02-10T06:28:35;42.77;;;15.97;;
5279;SDS011;2663;53.588;10.010;2023-02-10T06:31:02;31.70;;;15.13;;
5279;SDS011;2663;53.588;10.010;2023-02-10T06:33:29;50.27;;;14.27;;
5279;SDS011;2663;53.588;10.010;2023-02-10T06:35:56;34.70;;;15.83;;
5279;SDS011;2663;53.588;10.010;2023-02-10T06:38:22;60.67;;;16.30;;
5279;SDS011;2663;53.588;10.010;2023-02-10T06:40:49;36.53;;;15.10;;
5279;SDS011;2663;53.588;10.010;2023-02-10T06:43:16;42.77;;;16.00;;
5279;SDS011;2663;53.588;10.010;2023-02-10T06:45:42;33.87;;;14.43;;
5279;SDS011;2663;53.588;10.010;2023-02-10T06:48:09;40.73;;;12.53;;
5279;SDS011;2663;53.588;10.010;2023-02-10T06:50:35;36.73;;;15.60;;
5279;SDS011;2663;53.588;10.010;2023-02-10T06:53:04;43.63;;;17.10;;
5279;SDS011;2663;53.588;10.010;2023-02-10T06:55:31;31.10;;;15.60;;
5279;SDS011;2663;53.588;10.010;2023-02-10T06:57:58;44.23;;;16.37;;
5279;SDS011;2663;53.588;10.010;2023-02-10T07:00:25;39.90;;;16.10;;
5279;SDS011;2663;53.588;10.010;2023-02-10T07:02:52;33.67;;;13.63;;
5279;SDS011;2663;53.588;10.010;2023-02-10T07:05:19;52.47;;;14.90;;
5279;SDS011;2663;53.588;10.010;2023-02-10T07:07:46;40.93;;;14.90;;
5279;SDS011;2663;53.588;10.010;2023-02-10T07:10:13;37.73;;;15.60;;
5279;SDS011;2663;53.588;10.010;2023-02-10T07:12:40;33.70;;;15.00;;
5279;SDS011;2663;53.588;10.010;2023-02-10T07:15:07;46.20;;;13.70;;
5279;SDS011;2663;53.588;10.010;2023-02-10T07:17:34;42.27;;;14.83;;
5279;SDS011;2663;53.588;10.010;2023-02-10T07:20:03;32.67;;;13.83;;
5279;SDS011;2663;53.588;10.010;2023-02-10T07:22:30;48.57;;;14.67;;
5279;SDS011;2663;53.588;10.010;2023-02-10T07:24:56;39.23;;;15.10;;
5279;SDS011;2663;53.588;10.010;2023-02-10T07:27:23;44.53;;;15.33;;
5279;SDS011;2663;53.588;10.010;2023-02-10T07:29:50;36.67;;;15.20;;
5279;SDS011;2663;53.588;10.010;2023-02-10T07:32:16;57.43;;;14.70;;
5279;SDS011;2663;53.588;10.010;2023-02-10T07:34:43;38.20;;;15.67;;
5279;SDS011;2663;53.588;10.010;2023-02-10T07:37:10;34.93;;;13.47;;
5279;SDS011;2663;53.588;10.010;2023-02-10T07:39:36;40.20;;;15.60;;
5279;SDS011;2663;53.588;10.010;2023-02-10T07:42:03;41.80;;;16.40;;
5279;SDS011;2663;53.588;10.010;2023-02-10T07:44:30;55.80;;;14.97;;
5279;SDS011;2663;53.588;10.010;2023-02-10T07:46:56;28.43;;;12.70;;
5279;SDS011;2663;53.588;10.010;2023-02-10T07:49:23;47.07;;;15.37;;
5279;SDS011;2663;53.588;10.010;2023-02-10T07:51:53;52.40;;;16.33;;
5279;SDS011;2663;53.588;10.010;2023-02-10T07:54:19;52.50;;;15.80;;
5279;SDS011;2663;53.588;10.010;2023-02-10T07:56:46;37.50;;;14.20;;
5279;SDS011;2663;53.588;10.010;2023-02-10T07:59:13;40.87;;;15.30;;
5279;SDS011;2663;53.588;10.010;2023-02-10T08:01:40;51.17;;;16.37;;
5279;SDS011;2663;53.588;10.010;2023-02-10T08:04:09;55.60;;;16.40;;
5279;SDS011;2663;53.588;10.010;2023-02-10T08:06:36;57.47;;;14.50;;
5279;SDS011;2663;53.588;10.010;2023-02-10T08:09:03;50.27;;;16.10;;
5279;SDS011;2663;53.588;10.010;2023-02-10T08:11:30;43.23;;;16.30;;
5279;SDS011;2663;53.588;10.010;2023-02-10T08:13:58;53.47;;;16.20;;
5279;SDS011;2663;53.588;10.010;2023-02-10T08:16:26;51.30;;;15.40;;
5279;SDS011;2663;53.588;10.010;2023-02-10T08:18:53;55.90;;;16.10;;
5279;SDS011;2663;53.588;10.010;2023-02-10T08:21:19;78.77;;;16.67;;
5279;SDS011;2663;53.588;10.010;2023-02-10T08:23:46;48.20;;;16.87;;
5279;SDS011;2663;53.588;10.010;2023-02-10T08:26:12;44.33;;;15.93;;
5279;SDS011;2663;53.588;10.010;2023-02-10T08:28:39;43.17;;;16.07;;
5279;SDS011;2663;53.588;10.010;2023-02-10T08:31:07;47.37;;;16.30;;
5279;SDS011;2663;53.588;10.010;2023-02-10T08:33:35;53.17;;;15.57;;
5279;SDS011;2663;53.588;10.010;2023-02-10T08:36:13;55.73;;;16.90;;
5279;SDS011;2663;53.588;10.010;2023-02-10T08:38:41;40.77;;;16.20;;
5279;SDS011;2663;53.588;10.010;2023-02-10T08:41:08;53.37;;;15.97;;
5279;SDS011;2663;53.588;10.010;2023-02-10T08:43:35;51.27;;;17.83;;
5279;SDS011;2663;53.588;10.010;2023-02-10T08:46:02;45.07;;;16.83;;
5279;SDS011;2663;53.588;10.010;2023-02-10T08:48:29;35.93;;;15.30;;
5279;SDS011;2663;53.588;10.010;2023-02-10T08:50:57;46.33;;;16.23;;
5279;SDS011;2663;53.588;10.010;2023-02-10T08:53:24;45.10;;;16.90;;
5279;SDS011;2663;53.588;10.010;2023-02-10T08:55:58;48.60;;;16.00;;
5279;SDS011;2663;53.588;10.010;2023-02-10T08:58:27;45.10;;;17.03;;
5279;SDS011;2663;53.588;10.010;2023-02-10T09:00:53;35.30;;;14.57;;
5279;SDS011;2663;53.588;10.010;2023-02-10T09:03:20;63.43;;;16.40;;
5279;SDS011;2663;53.588;10.010;2023-02-10T09:05:47;63.33;;;18.00;;
5279;SDS011;2663;53.588;10.010;2023-02-10T09:08:15;50.13;;;15.57;;
5279;SDS011;2663;53.588;10.010;2023-02-10T09:10:44;45.47;;;15.90;;
5279;SDS011;2663;53.588;10.010;2023-02-10T09:13:11;43.37;;;14.47;;
5279;SDS011;2663;53.588;10.010;2023-02-10T09:15:39;51.60;;;15.53;;
5279;SDS011;2663;53.588;10.010;2023-02-10T09:18:08;46.83;;;15.10;;
5279;SDS011;2663;53.588;10.010;2023-02-10T09:20:35;37.20;;;14.73;;
5279;SDS011;2663;53.588;10.010;2023-02-10T09:23:02;45.40;;;15.97;;
5279;SDS011;2663;53.588;10.010;2023-02-10T09:25:29;50.73;;;14.77;;
5279;SDS011;2663;53.588;10.010;2023-02-10T09:27:56;46.23;;;16.77;;
5279;SDS011;2663;53.588;10.010;2023-02-10T09:30:24;32.43;;;13.63;;
5279;SDS011;2663;53.588;10.010;2023-02-10T09:32:51;61.80;;;15.87;;
5279;SDS011;2663;53.588;10.010;2023-02-10T09:35:18;41.77;;;16.13;;
5279;SDS011;2663;53.588;10.010;2023-02-10T09:37:46;46.63;;;15.37;;
5279;SDS011;2663;53.588;10.010;2023-02-10T09:40:17;57.30;;;17.80;;
5279;SDS011;2663;53.588;10.010;2023-02-10T09:45:42;68.30;;;19.73;;
5279;SDS011;2663;53.588;10.010;2023-02-10T09:48:18;40.73;;;17.40;;
5279;SDS011;2663;53.588;10.010;2023-02-10T09:51:16;47.83;;;17.10;;
5279;SDS011;2663;53.588;10.010;2023-02-10T09:53:59;41.80;;;16.90;;
5279;SDS011;2663;53.588;10.010;2023-02-10T09:56:27;43.73;;;17.20;;
5279;SDS011;2663;53.588;10.010;2023-02-10T09:58:54;42.67;;;15.10;;
5279;SDS011;2663;53.588;10.010;2023-02-10T10:01:26;48.37;;;15.80;;
5279;SDS011;2663;53.588;10.010;2023-02-10T10:06:34;48.23;;;17.40;;
5279;SDS011;2663;53.588;10.010;2023-02-10T10:11:42;26.03;;;11.90;;
5279;SDS011;2663;53.588;10.010;2023-02-10T10:14:24;46.57;;;17.50;;
5279;SDS011;2663;53.588;10.010;2023-02-10T10:22:38;41.77;;;15.70;;
5279;SDS011;2663;53.588;10.010;2023-02-10T10:25:21;59.90;;;18.43;;
5279;SDS011;2663;53.588;10.010;2023-02-10T10:30:47;35.67;;;13.57;;
5279;SDS011;2663;53.588;10.010;2023-02-10T10:36:19;42.57;;;17.70;;
5279;SDS011;2663;53.588;10.010;2023-02-10T10:38:52;42.67;;;18.13;;
5279;SDS011;2663;53.588;10.010;2023-02-10T10:41:25;39.87;;;17.17;;
5279;SDS011;2663;53.588;10.010;2023-02-10T10:43:56;40.37;;;17.47;;
5279;SDS011;2663;53.588;10.010;2023-02-10T10:49:01;51.53;;;16.10;;
5279;SDS011;2663;53.588;10.010;2023-02-10T10:51:28;50.27;;;16.83;;
5279;SDS011;2663;53.588;10.010;2023-02-10T10:53:57;30.97;;;14.87;;
5279;SDS011;2663;53.588;10.010;2023-02-10T10:56:30;48.73;;;19.03;;
5279;SDS011;2663;53.588;10.010;2023-02-10T10:59:14;44.10;;;16.57;;
5279;SDS011;2663;53.588;10.010;2023-02-10T11:01:47;55.23;;;15.30;;
5279;SDS011;2663;53.588;10.010;2023-02-10T11:04:16;46.43;;;18.27;;
5279;SDS011;2663;53.588;10.010;2023-02-10T11:06:46;40.80;;;16.80;;
5279;SDS011;2663;53.588;10.010;2023-02-10T11:09:23;61.07;;;18.03;;
5279;SDS011;2663;53.588;10.010;2023-02-10T11:12:15;41.40;;;16.90;;
5279;SDS011;2663;53.588;10.010;2023-02-10T11:14:45;38.03;;;15.70;;
5279;SDS011;2663;53.588;10.010;2023-02-10T11:20:21;43.30;;;15.60;;
5279;SDS011;2663;53.588;10.010;2023-02-10T11:23:00;37.43;;;14.63;;
5279;SDS011;2663;53.588;10.010;2023-02-10T11:25:39;38.40;;;17.33;;
5279;SDS011;2663;53.588;10.010;2023-02-10T11:28:07;45.67;;;15.83;;
5279;SDS011;2663;53.588;10.010;2023-02-10T11:30:46;48.20;;;15.27;;
5279;SDS011;2663;53.588;10.010;2023-02-10T11:33:21;40.97;;;16.07;;
5279;SDS011;2663;53.588;10.010;2023-02-10T11:35:52;32.97;;;14.73;;
5279;SDS011;2663;53.588;10.010;2023-02-10T11:38:24;34.07;;;16.30;;
5279;SDS011;2663;53.588;10.010;2023-02-10T11:40:53;35.83;;;14.63;;
5279;SDS011;2663;53.588;10.010;2023-02-10T11:43:46;50.97;;;17.10;;
5279;SDS011;2663;53.588;10.010;2023-02-10T11:46:27;41.33;;;15.00;;
5279;SDS011;2663;53.588;10.010;2023-02-10T11:48:56;51.60;;;14.37;;
5279;SDS011;2663;53.588;10.010;2023-02-10T11:51:29;39.30;;;13.67;;
5279;SDS011;2663;53.588;10.010;2023-02-10T11:53:56;46.53;;;15.80;;
5279;SDS011;2663;53.588;10.010;2023-02-10T11:56:38;42.70;;;13.67;;
5279;SDS011;2663;53.588;10.010;2023-02-10T11:59:35;27.27;;;12.30;;
5279;SDS011;2663;53.588;10.010;2023-02-10T12:05:28;27.10;;;11.90;;
5279;SDS011;2663;53.588;10.010;2023-02-10T12:10:55;27.67;;;12.37;;
5279;SDS011;2663;53.588;10.010;2023-02-10T12:16:27;38.47;;;10.50;;
5279;SDS011;2663;53.588;10.010;2023-02-10T12:19:26;20.83;;;9.50;;
5279;SDS011;2663;53.588;10.010;2023-02-10T12:22:29;32.17;;;9.33;;
5279;SDS011;2663;53.588;10.010;2023-02-10T12:25:09;21.73;;;9.47;;
5279;SDS011;2663;53.588;10.010;2023-02-10T12:44:54;17.90;;;7.13;;
5279;SDS011;2663;53.588;10.010;2023-02-10T12:50:25;20.00;;;8.20;;
5279;SDS011;2663;53.588;10.010;2023-02-10T12:53:24;17.83;;;6.90;;
5279;SDS011;2663;53.588;10.010;2023-02-10T12:56:01;25.77;;;7.23;;
5279;SDS011;2663;53.588;10.010;2023-02-10T12:58:36;20.73;;;8.07;;
5279;SDS011;2663;53.588;10.010;2023-02-10T13:01:15;17.37;;;6.83;;
5279;SDS011;2663;53.588;10.010;2023-02-10T13:04:02;25.47;;;7.50;;
5279;SDS011;2663;53.588;10.010;2023-02-10T13:06:41;17.00;;;7.50;;
5279;SDS011;2663;53.588;10.010;2023-02-10T13:12:27;21.53;;;7.57;;
5279;SDS011;2663;53.588;10.010;2023-02-10T13:17:43;21.10;;;8.20;;
5279;SDS011;2663;53.588;10.010;2023-02-10T13:28:39;15.17;;;6.97;;
5279;SDS011;2663;53.588;10.010;2023-02-10T13:31:37;18.23;;;6.47;;
5279;SDS011;2663;53.588;10.010;2023-02-10T13:34:23;15.60;;;6.47;;
5279;SDS011;2663;53.588;10.010;2023-02-10T13:36:58;19.30;;;7.00;;
5279;SDS011;2663;53.588;10.010;2023-02-10T13:39:33;16.83;;;7.10;;
5279;SDS011;2663;53.588;10.010;2023-02-10T13:42:05;14.97;;;6.63;;
5279;SDS011;2663;53.588;10.010;2023-02-10T13:44:59;19.23;;;6.27;;
5279;SDS011;2663;53.588;10.010;2023-02-10T13:47:39;15.10;;;6.60;;
5279;SDS011;2663;53.588;10.010;2023-02-10T13:55:24;12.00;;;5.73;;
5279;SDS011;2663;53.588;10.010;2023-02-10T14:00:30;20.43;;;6.30;;
5279;SDS011;2663;53.588;10.010;2023-02-10T14:03:24;16.23;;;6.30;;
5279;SDS011;2663;53.588;10.010;2023-02-10T14:06:03;14.33;;;5.43;;
5279;SDS011;2663;53.588;10.010;2023-02-10T14:08:37;20.47;;;6.43;;
5279;SDS011;2663;53.588;10.010;2023-02-10T14:11:40;20.13;;;6.90;;
5279;SDS011;2663;53.588;10.010;2023-02-10T14:14:25;12.60;;;5.83;;
5279;SDS011;2663;53.588;10.010;2023-02-10T14:19:44;32.67;;;7.60;;
5279;SDS011;2663;53.588;10.010;2023-02-10T14:25:47;15.17;;;6.40;;
5279;SDS011;2663;53.588;10.010;2023-02-10T14:27:57;14.13;;;7.10;;
5279;SDS011;2663;53.588;10.010;2023-02-10T14:30:37;18.73;;;7.20;;
5279;SDS011;2663;53.588;10.010;2023-02-10T14:33:40;21.63;;;6.73;;
5279;SDS011;2663;53.588;10.010;2023-02-10T14:36:02;15.20;;;7.43;;
5279;SDS011;2663;53.588;10.010;2023-02-10T14:38:33;9.97;;;6.13;;
5279;SDS011;2663;53.588;10.010;2023-02-10T14:41:01;24.60;;;8.40;;
5279;SDS011;2663;53.588;10.010;2023-02-10T14:43:45;18.70;;;7.50;;
5279;SDS011;2663;53.588;10.010;2023-02-10T14:46:33;26.23;;;8.17;;
5279;SDS011;2663;53.588;10.010;2023-02-10T14:49:08;18.83;;;7.23;;
5279;SDS011;2663;53.588;10.010;2023-02-10T14:51:40;14.00;;;6.30;;
5279;SDS011;2663;53.588;10.010;2023-02-10T14:54:15;11.67;;;6.13;;
5279;SDS011;2663;53.588;10.010;2023-02-10T14:56:57;22.30;;;8.30;;
5279;SDS011;2663;53.588;10.010;2023-02-10T14:59:27;17.53;;;8.43;;
5279;SDS011;2663;53.588;10.010;2023-02-10T15:01:55;23.13;;;7.90;;
5279;SDS011;2663;53.588;10.010;2023-02-10T15:04:42;18.97;;;7.40;;
5279;SDS011;2663;53.588;10.010;2023-02-10T15:07:12;19.77;;;7.70;;
5279;SDS011;2663;53.588;10.010;2023-02-10T15:09:52;28.37;;;8.13;;
5279;SDS011;2663;53.588;10.010;2023-02-10T15:12:22;12.90;;;6.70;;
5279;SDS011;2663;53.588;10.010;2023-02-10T15:14:56;17.67;;;6.83;;
5279;SDS011;2663;53.588;10.010;2023-02-10T15:17:34;16.50;;;7.27;;
5279;SDS011;2663;53.588;10.010;2023-02-10T15:27:57;19.13;;;6.20;;
5279;SDS011;2663;53.588;10.010;2023-02-10T15:33:39;24.47;;;8.10;;
5279;SDS011;2663;53.588;10.010;2023-02-10T15:36:23;37.87;;;8.37;;
5279;SDS011;2663;53.588;10.010;2023-02-10T15:39:21;19.13;;;6.30;;
5279;SDS011;2663;53.588;10.010;2023-02-10T15:47:35;29.87;;;7.87;;
5279;SDS011;2663;53.588;10.010;2023-02-10T15:50:06;29.10;;;11.60;;
5279;SDS011;2663;53.588;10.010;2023-02-10T15:52:30;20.07;;;10.90;;
5279;SDS011;2663;53.588;10.010;2023-02-10T15:55:00;30.43;;;10.80;;
5279;SDS011;2663;53.588;10.010;2023-02-10T15:57:29;30.00;;;11.83;;
5279;SDS011;2663;53.588;10.010;2023-02-10T15:59:56;23.80;;;11.17;;
5279;SDS011;2663;53.588;10.010;2023-02-10T16:02:22;25.87;;;10.57;;
5279;SDS011;2663;53.588;10.010;2023-02-10T16:04:51;21.17;;;8.93;;
5279;SDS011;2663;53.588;10.010;2023-02-10T16:07:22;22.00;;;10.73;;
5279;SDS011;2663;53.588;10.010;2023-02-10T16:09:53;37.20;;;11.17;;
5279;SDS011;2663;53.588;10.010;2023-02-10T16:12:20;29.13;;;12.03;;
5279;SDS011;2663;53.588;10.010;2023-02-10T16:14:47;23.23;;;10.70;;
5279;SDS011;2663;53.588;10.010;2023-02-10T16:17:17;28.43;;;11.27;;
5279;SDS011;2663;53.588;10.010;2023-02-10T16:19:47;20.97;;;11.50;;
5279;SDS011;2663;53.588;10.010;2023-02-10T16:22:14;29.00;;;13.17;;
5279;SDS011;2663;53.588;10.010;2023-02-10T16:24:41;28.30;;;11.37;;
5279;SDS011;2663;53.588;10.010;2023-02-10T16:27:09;30.33;;;11.80;;
5279;SDS011;2663;53.588;10.010;2023-02-10T16:29:37;28.73;;;9.70;;
5279;SDS011;2663;53.588;10.010;2023-02-10T16:32:04;34.03;;;13.87;;
5279;SDS011;2663;53.588;10.010;2023-02-10T16:34:31;30.27;;;12.37;;
5279;SDS011;2663;53.588;10.010;2023-02-10T16:36:58;35.97;;;13.50;;
5279;SDS011;2663;53.588;10.010;2023-02-10T16:39:25;22.77;;;11.33;;
5279;SDS011;2663;53.588;10.010;2023-02-10T16:41:54;30.67;;;12.97;;
5279;SDS011;2663;53.588;10.010;2023-02-10T16:44:22;30.57;;;12.13;;
5279;SDS011;2663;53.588;10.010;2023-02-10T16:46:49;33.80;;;14.57;;
5279;SDS011;2663;53.588;10.010;2023-02-10T16:49:16;25.90;;;12.53;;
5279;SDS011;2663;53.588;10.010;2023-02-10T16:51:44;31.63;;;13.70;;
5279;SDS011;2663;53.588;10.010;2023-02-10T16:54:11;23.03;;;10.73;;
5279;SDS011;2663;53.588;10.010;2023-02-10T16:56:39;30.87;;;10.80;;
5279;SDS011;2663;53.588;10.010;2023-02-10T16:59:09;26.10;;;12.23;;
5279;SDS011;2663;53.588;10.010;2023-02-10T17:01:39;23.50;;;10.80;;
5279;SDS011;2663;53.588;10.010;2023-02-10T17:04:06;32.97;;;11.73;;
5279;SDS011;2663;53.588;10.010;2023-02-10T17:06:34;20.93;;;11.13;;